Time;durP1;ratioP1;P1;durP2;ratioP2;P2;SDS_P1;SDS_P2;PMS_P1;PMS_P2;Temp;Humidity;BMP_temperature;BMP_pressure;BME280_temperature;BME280_humidity;BME280_pressure;Samples;Min_cycle;Max_cycle;Signal;HPM_P1;HPM_P2
2023/05/28 00:00:44;;;;;;;11.38;7.55;;;20.50;62.40;;;;;;5057739;28;20096;-62
2023/05/28 00:03:10;;;;;;;11.57;6.82;;;20.50;62.20;;;;;;5056347;28;20037;-62
2023/05/28 00:05:36;;;;;;;15.73;8.18;;;20.50;62.00;;;;;;5057237;28;20067;-62
2023/05/28 00:08:02;;;;;;;12.00;8.02;;;20.50;61.90;;;;;;5057744;28;20043;-62
2023/05/28 00:10:29;;;;;;;11.70;7.82;;;20.50;61.90;;;;;;5057525;28;20035;-63
2023/05/28 00:12:54;;;;;;;12.65;8.23;;;20.50;61.90;;;;;;5057132;28;20025;-62
2023/05/28 00:15:21;;;;;;;13.60;7.28;;;20.50;61.70;;;;;;5057114;28;20020;-62
2023/05/28 00:17:47;;;;;;;11.57;7.00;;;20.50;61.50;;;;;;5057839;28;20335;-62
2023/05/28 00:20:13;;;;;;;9.90;7.10;;;20.50;61.30;;;;;;5057344;28;20051;-62
2023/05/28 00:22:39;;;;;;;11.23;7.65;;;20.60;61.10;;;;;;5057559;28;20025;-62
2023/05/28 00:25:06;;;;;;;11.65;7.72;;;20.60;60.90;;;;;;5056834;28;20021;-62
2023/05/28 00:27:32;;;;;;;12.32;7.43;;;20.60;60.80;;;;;;5056657;28;20053;-62
2023/05/28 00:29:58;;;;;;;11.73;7.78;;;20.60;60.70;;;;;;5057069;28;20028;-62
2023/05/28 00:32:24;;;;;;;12.07;7.50;;;20.60;60.70;;;;;;5057068;28;20013;-62
2023/05/28 00:34:50;;;;;;;12.38;7.93;;;20.60;60.70;;;;;;5057012;28;20059;-62
2023/05/28 00:37:16;;;;;;;11.43;6.90;;;20.60;60.60;;;;;;5056630;28;20104;-62
2023/05/28 00:39:42;;;;;;;12.18;7.30;;;20.60;60.40;;;;;;5055685;28;20025;-62
2023/05/28 00:42:10;;;;;;;13.95;7.63;;;20.60;60.20;;;;;;5055680;28;20098;-63
2023/05/28 00:44:37;;;;;;;10.77;7.22;;;20.60;60.00;;;;;;5056880;28;20108;-63
2023/05/28 00:47:04;;;;;;;12.25;7.40;;;20.60;59.90;;;;;;5056800;28;20068;-63
2023/05/28 00:49:32;;;;;;;11.52;7.10;;;20.70;59.60;;;;;;5056420;28;20370;-63
2023/05/28 00:51:59;;;;;;;10.55;7.10;;;20.70;59.30;;;;;;5056725;28;20047;-62
2023/05/28 00:54:26;;;;;;;11.15;7.32;;;20.70;59.40;;;;;;5056387;28;20071;-62
2023/05/28 00:56:57;;;;;;;11.65;7.50;;;20.70;59.30;;;;;;5056315;28;20029;-62
2023/05/28 00:59:25;;;;;;;13.40;7.55;;;20.70;58.70;;;;;;5056204;28;20358;-62
2023/05/28 01:01:51;;;;;;;11.05;7.13;;;20.70;58.80;;;;;;5056512;28;20039;-62
2023/05/28 01:04:17;;;;;;;12.73;7.22;;;20.70;59.00;;;;;;5056726;28;20112;-62
2023/05/28 01:06:44;;;;;;;10.80;7.28;;;20.70;58.90;;;;;;5056368;28;20358;-62
2023/05/28 01:09:12;;;;;;;12.30;6.90;;;20.70;58.90;;;;;;5056086;28;20469;-62
2023/05/28 01:11:41;;;;;;;12.63;7.60;;;20.70;59.00;;;;;;5056116;28;20051;-62
2023/05/28 01:14:07;;;;;;;12.15;7.60;;;20.70;59.10;;;;;;5055929;28;20036;-63
2023/05/28 01:16:33;;;;;;;11.00;7.50;;;20.60;59.10;;;;;;5055852;28;20029;-62
2023/05/28 01:19:00;;;;;;;12.40;7.57;;;20.60;59.20;;;;;;5056233;28;20096;-62
2023/05/28 01:21:27;;;;;;;11.50;7.28;;;20.60;58.70;;;;;;5055903;28;20047;-62
2023/05/28 01:23:55;;;;;;;13.25;6.95;;;20.60;58.80;;;;;;5055827;28;20028;-62
2023/05/28 01:26:21;;;;;;;11.40;6.93;;;20.60;58.40;;;;;;5055944;28;20025;-62
2023/05/28 01:28:48;;;;;;;11.23;7.05;;;20.60;58.40;;;;;;5054761;28;20163;-62
2023/05/28 01:31:16;;;;;;;12.27;7.43;;;20.60;58.30;;;;;;5055982;28;20033;-63
2023/05/28 01:33:43;;;;;;;10.10;6.28;;;20.60;58.30;;;;;;5055944;28;20024;-62
2023/05/28 01:36:37;;;;;;;11.90;6.85;;;20.60;58.30;;;;;;5056140;28;20063;-63
2023/05/28 01:39:03;;;;;;;10.15;6.97;;;20.60;58.00;;;;;;5055861;28;20028;-62
2023/05/28 01:41:30;;;;;;;12.30;6.65;;;20.60;58.10;;;;;;5055802;28;20033;-62
2023/05/28 01:43:56;;;;;;;11.57;7.05;;;20.60;57.90;;;;;;5055459;28;20025;-62
2023/05/28 01:46:23;;;;;;;14.50;6.57;;;20.60;57.90;;;;;;5055671;28;20028;-62
2023/05/28 01:48:49;;;;;;;11.65;7.10;;;20.60;57.90;;;;;;5055597;28;20028;-63
2023/05/28 01:51:17;;;;;;;12.60;6.82;;;20.60;57.90;;;;;;5055341;28;20029;-62
2023/05/28 01:53:43;;;;;;;14.05;6.50;;;20.60;57.90;;;;;;5055579;28;20377;-62
2023/05/28 01:56:09;;;;;;;13.20;7.13;;;20.60;57.90;;;;;;5055277;28;20112;-63
2023/05/28 01:58:35;;;;;;;16.30;7.22;;;20.60;58.00;;;;;;5055498;28;20065;-62
2023/05/28 02:01:27;;;;;;;11.20;6.78;;;20.60;58.00;;;;;;5054519;28;20466;-62
2023/05/28 02:03:54;;;;;;;10.30;6.65;;;20.60;58.10;;;;;;5055157;28;20347;-62
2023/05/28 02:06:20;;;;;;;10.80;6.82;;;20.50;58.20;;;;;;5055317;28;20029;-62
2023/05/28 02:08:47;;;;;;;13.07;7.63;;;20.50;58.30;;;;;;5055389;28;20028;-62
2023/05/28 02:11:12;;;;;;;10.43;6.90;;;20.50;58.40;;;;;;5055378;28;20032;-63
2023/05/28 02:13:39;;;;;;;10.95;6.80;;;20.50;58.70;;;;;;5055064;28;20029;-62
2023/05/28 02:16:06;;;;;;;11.57;7.32;;;20.50;58.70;;;;;;5055109;28;20024;-62
2023/05/28 02:18:32;;;;;;;10.13;6.53;;;20.40;58.90;;;;;;5054988;28;20036;-63
2023/05/28 02:20:58;;;;;;;10.75;6.32;;;20.40;59.20;;;;;;5055534;28;20036;-62
2023/05/28 02:23:24;;;;;;;12.50;6.68;;;20.40;59.20;;;;;;5054961;28;20036;-62
2023/05/28 02:25:50;;;;;;;12.05;7.47;;;20.40;59.20;;;;;;5055406;28;20017;-62
2023/05/28 02:28:16;;;;;;;13.27;7.57;;;20.40;59.30;;;;;;5060956;28;20073;-62
2023/05/28 02:30:41;;;;;;;12.15;6.78;;;20.30;59.30;;;;;;5062654;28;20025;-62
2023/05/28 02:33:08;;;;;;;11.13;7.10;;;20.40;59.30;;;;;;5061580;28;20377;-62
2023/05/28 02:35:34;;;;;;;11.20;7.10;;;20.30;59.30;;;;;;5061445;28;20488;-62
2023/05/28 02:38:00;;;;;;;11.73;7.38;;;20.30;59.40;;;;;;5061437;28;20021;-63
2023/05/28 02:40:26;;;;;;;11.15;7.07;;;20.30;59.40;;;;;;5061472;28;20083;-62
2023/05/28 02:42:52;;;;;;;11.50;7.13;;;20.30;59.50;;;;;;5061423;28;20021;-62
2023/05/28 02:45:18;;;;;;;14.50;7.45;;;20.30;59.50;;;;;;5061398;28;20100;-62
2023/05/28 02:47:43;;;;;;;11.57;7.30;;;20.30;59.70;;;;;;5061613;28;20036;-62
2023/05/28 02:50:09;;;;;;;15.00;7.53;;;20.20;59.60;;;;;;5061373;28;20021;-63
2023/05/28 02:52:35;;;;;;;13.40;6.95;;;20.20;59.70;;;;;;5061644;28;20029;-62
2023/05/28 02:55:02;;;;;;;12.15;6.57;;;20.20;59.90;;;;;;5061587;28;20346;-62
2023/05/28 02:57:28;;;;;;;10.98;6.75;;;20.20;60.00;;;;;;5061354;28;20021;-62
2023/05/28 02:59:54;;;;;;;12.23;7.13;;;20.20;60.00;;;;;;5061392;28;20036;-62
2023/05/28 03:02:20;;;;;;;11.60;7.03;;;20.20;60.20;;;;;;5060299;28;20029;-62
2023/05/28 03:04:45;;;;;;;12.55;6.93;;;20.10;60.30;;;;;;5061352;28;20052;-62
2023/05/28 03:07:11;;;;;;;13.45;7.10;;;20.10;60.30;;;;;;5061242;28;20029;-62
2023/05/28 03:09:37;;;;;;;12.63;7.25;;;20.10;60.50;;;;;;5061182;28;20074;-62
2023/05/28 03:12:03;;;;;;;12.77;6.82;;;20.10;60.70;;;;;;5061294;28;20100;-62
2023/05/28 03:14:30;;;;;;;12.57;7.07;;;20.00;60.60;;;;;;5061748;28;20025;-62
2023/05/28 03:16:56;;;;;;;13.63;6.90;;;20.00;60.80;;;;;;5061374;28;20029;-62
2023/05/28 03:19:22;;;;;;;12.02;6.93;;;20.00;60.90;;;;;;5061482;28;20502;-62
2023/05/28 03:21:47;;;;;;;10.32;6.38;;;20.00;61.10;;;;;;5061410;28;20033;-62
2023/05/28 03:24:14;;;;;;;10.88;6.70;;;20.00;61.20;;;;;;5061405;28;20073;-62
2023/05/28 03:26:40;;;;;;;9.00;6.10;;;20.00;61.50;;;;;;5060680;28;20056;-62
2023/05/28 03:29:06;;;;;;;10.48;6.20;;;19.90;61.70;;;;;;5061262;28;20036;-62
2023/05/28 03:31:43;;;;;;;11.02;6.28;;;19.90;61.80;;;;;;5061072;28;20079;-62
2023/05/28 03:34:09;;;;;;;9.57;6.05;;;19.90;62.10;;;;;;5061306;28;20029;-63
2023/05/28 03:36:35;;;;;;;8.65;6.22;;;19.90;62.20;;;;;;5062805;28;20047;-62
2023/05/28 03:39:01;;;;;;;9.18;5.72;;;19.90;62.40;;;;;;5061283;28;20100;-62
2023/05/28 03:41:27;;;;;;;9.45;5.97;;;19.90;62.60;;;;;;5060481;28;20056;-63
2023/05/28 03:43:53;;;;;;;10.32;6.15;;;19.90;62.70;;;;;;5060789;28;20027;-63
2023/05/28 03:46:18;;;;;;;9.68;6.28;;;19.90;62.90;;;;;;5058807;28;20477;-62
2023/05/28 03:48:44;;;;;;;9.98;6.32;;;19.90;63.10;;;;;;5057641;28;20393;-62
2023/05/28 03:51:10;;;;;;;9.98;6.32;;;19.80;63.00;;;;;;5057697;28;20385;-62
2023/05/28 03:53:36;;;;;;;9.23;6.05;;;19.90;63.20;;;;;;5058119;28;20021;-62
2023/05/28 03:56:02;;;;;;;13.13;6.85;;;19.80;63.40;;;;;;5057782;28;20048;-62
2023/05/28 03:58:28;;;;;;;9.65;6.07;;;19.90;63.80;;;;;;5057522;28;20033;-63
2023/05/28 04:00:54;;;;;;;8.88;6.22;;;19.80;63.90;;;;;;5057714;28;20085;-62
2023/05/28 04:03:20;;;;;;;11.27;6.30;;;19.80;64.00;;;;;;5057465;28;20103;-62
2023/05/28 04:05:46;;;;;;;9.20;6.65;;;19.80;64.10;;;;;;5057295;28;20029;-62
2023/05/28 04:08:12;;;;;;;10.27;6.63;;;19.80;64.20;;;;;;5057210;28;20036;-62
2023/05/28 04:10:38;;;;;;;9.90;6.80;;;19.80;64.20;;;;;;5057314;28;20029;-62
2023/05/28 04:13:04;;;;;;;10.95;6.75;;;19.70;64.30;;;;;;5057782;28;20060;-63
2023/05/28 04:15:30;;;;;;;9.32;5.70;;;19.70;64.50;;;;;;5057664;28;20021;-62
2023/05/28 04:17:56;;;;;;;10.50;6.45;;;19.70;64.60;;;;;;5057636;28;20023;-62
2023/05/28 04:20:22;;;;;;;9.85;6.22;;;19.70;64.80;;;;;;5057609;28;20108;-62
2023/05/28 04:22:48;;;;;;;10.57;6.82;;;19.70;64.90;;;;;;5057303;28;20049;-62
2023/05/28 04:25:13;;;;;;;10.45;6.75;;;19.70;65.00;;;;;;5057171;28;20350;-62
2023/05/28 04:27:42;;;;;;;11.63;6.97;;;19.70;65.20;;;;;;5056822;28;20045;-62
2023/05/28 04:30:09;;;;;;;10.20;6.63;;;19.70;65.10;;;;;;5057049;28;20028;-62
2023/05/28 04:32:35;;;;;;;11.00;7.18;;;19.70;65.10;;;;;;5057117;28;20030;-62
2023/05/28 04:35:03;;;;;;;8.88;6.10;;;19.70;64.90;;;;;;5056745;28;20036;-63
2023/05/28 04:37:30;;;;;;;10.65;6.88;;;19.70;64.90;;;;;;5056668;28;20485;-62
2023/05/28 04:39:56;;;;;;;10.32;6.60;;;19.80;64.80;;;;;;5057273;28;20121;-62
2023/05/28 04:42:22;;;;;;;9.43;6.30;;;19.80;64.70;;;;;;5056624;28;20017;-62
2023/05/28 04:44:48;;;;;;;10.00;6.38;;;19.80;64.70;;;;;;5056617;28;20077;-62
2023/05/28 04:47:14;;;;;;;13.75;6.63;;;19.90;64.70;;;;;;5056476;28;20351;-62
2023/05/28 04:49:40;;;;;;;11.50;6.90;;;19.90;64.60;;;;;;5056227;28;20167;-62
2023/05/28 04:52:06;;;;;;;11.98;7.60;;;19.90;64.60;;;;;;5055524;28;20017;-62
2023/05/28 04:54:32;;;;;;;11.27;7.13;;;19.90;64.90;;;;;;5057003;28;20033;-62
2023/05/28 04:56:58;;;;;;;12.65;8.05;;;19.90;64.60;;;;;;5056900;28;20032;-62
2023/05/28 04:59:25;;;;;;;11.80;7.38;;;20.00;64.60;;;;;;5055397;28;20362;-63
2023/05/28 05:01:50;;;;;;;10.93;6.63;;;20.00;64.60;;;;;;5056373;28;20017;-62
2023/05/28 05:04:17;;;;;;;10.98;6.78;;;20.00;64.50;;;;;;5056265;28;20099;-63
2023/05/28 05:06:43;;;;;;;11.15;6.72;;;20.00;64.50;;;;;;5056475;28;20029;-62
2023/05/28 05:09:09;;;;;;;10.93;6.63;;;20.00;64.30;;;;;;5056122;28;20029;-62
2023/05/28 05:11:35;;;;;;;12.57;7.95;;;20.00;64.20;;;;;;5056652;28;20108;-63
2023/05/28 05:14:01;;;;;;;10.13;6.75;;;20.20;64.30;;;;;;5056075;28;20045;-63
2023/05/28 05:16:27;;;;;;;10.85;6.95;;;20.10;64.20;;;;;;5055985;28;20020;-62
2023/05/28 05:18:53;;;;;;;9.82;6.88;;;20.10;64.10;;;;;;5055977;28;20059;-62
2023/05/28 05:21:20;;;;;;;14.30;7.70;;;20.20;64.20;;;;;;5056231;28;20017;-62
2023/05/28 05:23:46;;;;;;;15.50;9.13;;;20.20;64.30;;;;;;5056157;28;20151;-63
2023/05/28 05:26:16;;;;;;;14.82;8.90;;;20.20;64.60;;;;;;5055617;28;20100;-63
2023/05/28 05:28:43;;;;;;;12.00;7.82;;;20.20;64.50;;;;;;5056023;28;20029;-62
2023/05/28 05:31:13;;;;;;;11.55;7.32;;;20.30;64.60;;;;;;5055768;28;20025;-62
2023/05/28 05:33:40;;;;;;;11.45;7.38;;;20.30;64.90;;;;;;5055936;28;20111;-62
2023/05/28 05:36:08;;;;;;;11.85;7.50;;;20.30;64.80;;;;;;5055890;28;20076;-62
2023/05/28 05:38:34;;;;;;;13.07;8.20;;;20.30;64.40;;;;;;5055574;28;20434;-62
2023/05/28 05:41:01;;;;;;;10.80;6.80;;;20.40;64.30;;;;;;5055819;28;20029;-62
2023/05/28 05:43:26;;;;;;;9.73;6.97;;;20.40;64.40;;;;;;5056056;28;20116;-62
2023/05/28 05:45:52;;;;;;;10.38;6.70;;;20.40;64.30;;;;;;5055700;28;20102;-62
2023/05/28 05:48:18;;;;;;;11.68;7.57;;;20.50;64.20;;;;;;5055641;28;20055;-62
2023/05/28 05:50:51;;;;;;;12.30;6.97;;;20.60;64.10;;;;;;5055351;28;20060;-62
2023/05/28 05:53:20;;;;;;;10.77;7.30;;;20.70;64.00;;;;;;5055967;28;20029;-63
2023/05/28 05:55:46;;;;;;;12.10;7.57;;;20.90;63.90;;;;;;5055258;28;20112;-62
2023/05/28 05:58:13;;;;;;;10.75;6.63;;;21.00;63.50;;;;;;5055589;28;20103;-62
2023/05/28 06:00:39;;;;;;;9.35;6.35;;;21.20;63.20;;;;;;5054989;28;20358;-62
2023/05/28 06:03:06;;;;;;;11.45;7.03;;;21.40;62.80;;;;;;5054957;28;20043;-62
2023/05/28 06:05:33;;;;;;;11.93;7.18;;;21.60;62.60;;;;;;5055099;28;20044;-62
2023/05/28 06:07:59;;;;;;;9.82;7.20;;;21.90;62.00;;;;;;5055355;28;20041;-62
2023/05/28 06:10:25;;;;;;;8.98;6.47;;;22.20;61.60;;;;;;5055404;28;20021;-62
2023/05/28 06:12:51;;;;;;;11.77;6.55;;;22.50;61.00;;;;;;5055068;28;20107;-63
2023/05/28 06:15:17;;;;;;;9.50;6.43;;;23.10;60.50;;;;;;5055274;28;20021;-63
2023/05/28 06:17:43;;;;;;;10.45;7.32;;;23.70;59.40;;;;;;5055105;28;20363;-62
2023/05/28 06:20:10;;;;;;;10.95;7.20;;;24.10;58.10;;;;;;5054973;28;20106;-63
2023/05/28 06:22:36;;;;;;;9.98;6.97;;;24.30;57.50;;;;;;5055041;28;20029;-63
2023/05/28 06:25:02;;;;;;;12.10;6.50;;;24.30;57.20;;;;;;5054958;28;20040;-63
2023/05/28 06:27:28;;;;;;;8.63;5.75;;;24.30;57.00;;;;;;5053774;28;20351;-63
2023/05/28 06:29:54;;;;;;;10.73;6.57;;;24.40;56.70;;;;;;5054893;28;20030;-63
2023/05/28 06:32:20;;;;;;;9.43;6.68;;;24.70;56.20;;;;;;5055179;28;20044;-63
2023/05/28 06:34:46;;;;;;;10.18;6.07;;;25.10;55.50;;;;;;5055374;28;20025;-63
2023/05/28 06:37:12;;;;;;;11.40;6.45;;;25.50;54.70;;;;;;5055272;28;20076;-63
2023/05/28 06:39:38;;;;;;;9.10;5.97;;;25.90;53.90;;;;;;5055142;28;20071;-62
2023/05/28 06:42:05;;;;;;;9.25;6.13;;;26.20;53.10;;;;;;5054839;28;20392;-63
2023/05/28 06:44:32;;;;;;;10.30;6.15;;;26.40;52.50;;;;;;5055815;28;20064;-63
2023/05/28 06:46:58;;;;;;;8.45;5.78;;;26.60;52.00;;;;;;5054700;28;20079;-63
2023/05/28 06:49:24;;;;;;;9.80;5.15;;;26.90;51.20;;;;;;5054961;28;20017;-62
2023/05/28 06:51:51;;;;;;;7.05;4.90;;;26.90;50.90;;;;;;5054756;28;20031;-63
2023/05/28 06:54:17;;;;;;;7.82;5.50;;;27.00;50.30;;;;;;5054699;28;20032;-62
2023/05/28 06:56:43;;;;;;;8.75;5.60;;;27.10;50.20;;;;;;5054909;28;20017;-63
2023/05/28 06:59:09;;;;;;;9.25;5.78;;;27.20;49.90;;;;;;5054960;28;20025;-63
2023/05/28 07:01:35;;;;;;;9.30;5.90;;;27.10;49.70;;;;;;5054654;28;20033;-62
2023/05/28 07:04:01;;;;;;;10.55;5.95;;;27.00;49.30;;;;;;5054916;28;20082;-62
2023/05/28 07:06:27;;;;;;;10.18;5.80;;;26.90;49.30;;;;;;5054487;28;20350;-63
2023/05/28 07:08:53;;;;;;;9.40;5.90;;;26.70;48.60;;;;;;5054761;28;20021;-62
2023/05/28 07:11:19;;;;;;;8.98;5.72;;;26.50;48.10;;;;;;5054733;28;20033;-63
2023/05/28 07:13:46;;;;;;;11.60;6.43;;;26.40;47.80;;;;;;5056861;28;20056;-62
2023/05/28 07:16:12;;;;;;;10.35;5.68;;;26.40;47.60;;;;;;5058477;28;20465;-63
2023/05/28 07:18:38;;;;;;;10.75;5.97;;;26.40;47.40;;;;;;5058545;28;20060;-63
2023/05/28 07:21:05;;;;;;;12.60;6.53;;;26.50;46.90;;;;;;5057228;28;20036;-63
2023/05/28 07:23:31;;;;;;;12.70;6.60;;;26.50;46.30;;;;;;5058080;28;20029;-63
2023/05/28 07:25:57;;;;;;;11.13;6.38;;;26.60;46.60;;;;;;5058078;28;20032;-63
2023/05/28 07:28:23;;;;;;;9.88;5.90;;;26.80;46.50;;;;;;5057871;28;20040;-63
2023/05/28 07:30:49;;;;;;;10.15;6.78;;;26.90;46.20;;;;;;5058326;28;20071;-63
2023/05/28 07:33:15;;;;;;;12.50;6.57;;;27.10;46.10;;;;;;5058284;28;20021;-63
2023/05/28 07:35:41;;;;;;;11.95;6.18;;;27.30;45.80;;;;;;5057894;28;20517;-63
2023/05/28 07:38:10;;;;;;;12.13;7.10;;;27.30;45.60;;;;;;5057919;28;20049;-63
2023/05/28 07:40:37;;;;;;;9.98;5.75;;;27.40;44.90;;;;;;5056891;28;20025;-63
2023/05/28 07:43:03;;;;;;;11.35;6.97;;;27.50;45.40;;;;;;5058341;28;20033;-62
2023/05/28 07:45:28;;;;;;;10.85;6.60;;;27.60;44.50;;;;;;5057892;28;20013;-62
2023/05/28 07:47:54;;;;;;;10.13;6.50;;;27.70;44.80;;;;;;5057967;28;20021;-63
2023/05/28 07:50:20;;;;;;;10.77;6.75;;;27.60;44.50;;;;;;5057618;28;20033;-63
2023/05/28 07:52:47;;;;;;;9.85;6.15;;;27.50;44.20;;;;;;5057655;28;20017;-62
2023/05/28 07:55:13;;;;;;;9.23;6.32;;;27.50;44.50;;;;;;5057560;28;20067;-63
2023/05/28 07:57:39;;;;;;;12.55;7.25;;;27.50;43.90;;;;;;5057564;28;20126;-63
2023/05/28 08:00:09;;;;;;;9.43;6.10;;;27.50;43.50;;;;;;5057421;28;20021;-62
2023/05/28 08:02:36;;;;;;;10.48;6.22;;;27.30;42.90;;;;;;5056766;28;20048;-63
2023/05/28 08:05:05;;;;;;;11.25;5.88;;;27.20;42.50;;;;;;5057564;28;20496;-63
2023/05/28 08:07:32;;;;;;;9.60;5.72;;;26.90;42.30;;;;;;5057917;28;20041;-63
2023/05/28 08:09:58;;;;;;;11.43;6.47;;;26.80;43.20;;;;;;5057758;28;20032;-63
2023/05/28 08:12:24;;;;;;;10.40;6.32;;;26.80;43.30;;;;;;5057260;28;20017;-63
2023/05/28 08:14:50;;;;;;;10.43;6.07;;;26.90;43.70;;;;;;5057243;28;20021;-62
2023/05/28 08:17:16;;;;;;;10.55;6.25;;;27.00;43.70;;;;;;5057641;28;20040;-63
2023/05/28 08:19:42;;;;;;;9.27;5.75;;;27.10;42.90;;;;;;5057371;28;20021;-63
2023/05/28 08:22:11;;;;;;;11.15;5.63;;;27.10;42.40;;;;;;5057321;28;20109;-63
2023/05/28 08:24:37;;;;;;;8.48;5.20;;;27.00;42.40;;;;;;5056077;28;20029;-63
2023/05/28 08:27:03;;;;;;;9.63;5.22;;;27.00;42.50;;;;;;5056781;28;20084;-63
2023/05/28 08:29:29;;;;;;;12.35;5.35;;;27.10;42.80;;;;;;5056849;28;20028;-63
2023/05/28 08:31:57;;;;;;;10.23;5.80;;;27.20;42.60;;;;;;5057143;28;20024;-63
2023/05/28 08:34:26;;;;;;;9.98;6.15;;;27.30;42.70;;;;;;5057092;28;20029;-63
2023/05/28 08:36:52;;;;;;;10.40;6.10;;;27.40;42.60;;;;;;5056737;28;20104;-63
2023/05/28 08:39:19;;;;;;;10.52;7.30;;;27.40;42.40;;;;;;5056992;28;20104;-63
2023/05/28 08:41:45;;;;;;;14.68;7.82;;;27.40;42.80;;;;;;5056681;28;20036;-62
2023/05/28 08:44:11;;;;;;;14.85;7.50;;;27.40;42.90;;;;;;5057382;28;20025;-62
2023/05/28 08:46:41;;;;;;;13.68;8.23;;;27.30;43.30;;;;;;5056584;28;20100;-63
2023/05/28 08:49:10;;;;;;;13.75;7.32;;;27.10;42.90;;;;;;5056959;28;20071;-63
2023/05/28 08:51:37;;;;;;;11.25;7.07;;;26.90;42.90;;;;;;5056966;28;20040;-63
2023/05/28 08:54:03;;;;;;;12.38;7.35;;;26.80;43.10;;;;;;5056694;28;20021;-63
2023/05/28 08:56:29;;;;;;;10.85;6.97;;;26.70;43.50;;;;;;5056594;28;20128;-63
2023/05/28 08:58:55;;;;;;;13.02;7.35;;;26.80;43.80;;;;;;5056903;28;20103;-63
2023/05/28 09:01:22;;;;;;;10.63;6.93;;;26.80;43.80;;;;;;5056532;28;20036;-62
2023/05/28 09:03:48;;;;;;;10.82;6.80;;;26.70;43.60;;;;;;5056172;28;20031;-63
2023/05/28 09:06:15;;;;;;;12.77;7.35;;;26.70;43.50;;;;;;5056039;28;20116;-62
2023/05/28 09:08:45;;;;;;;11.48;6.65;;;26.60;43.80;;;;;;5055033;28;20025;-63
2023/05/28 09:11:12;;;;;;;9.98;6.25;;;26.50;44.10;;;;;;5056319;28;20045;-63
2023/05/28 09:13:45;;;;;;;9.40;6.53;;;26.50;43.90;;;;;;5056195;28;20034;-63
2023/05/28 09:16:22;;;;;;;10.38;7.00;;;26.40;43.60;;;;;;5055893;28;20025;-62
2023/05/28 09:19:02;;;;;;;14.52;7.00;;;26.40;44.30;;;;;;5056172;28;20397;-63
2023/05/28 09:21:27;;;;;;;12.50;7.18;;;26.40;44.80;;;;;;5056113;28;20029;-63
2023/05/28 09:23:53;;;;;;;13.70;7.05;;;26.40;44.90;;;;;;5056011;28;20070;-63
2023/05/28 09:26:19;;;;;;;15.15;7.88;;;26.40;45.40;;;;;;5055380;28;20033;-62
2023/05/28 09:28:45;;;;;;;11.40;6.72;;;26.40;45.50;;;;;;5055602;28;20457;-62
2023/05/28 09:31:12;;;;;;;10.25;6.30;;;26.50;45.30;;;;;;5054795;28;20025;-62
2023/05/28 09:33:43;;;;;;;12.32;7.07;;;26.60;45.30;;;;;;5052340;28;20065;-62
2023/05/28 09:36:10;;;;;;;13.95;7.28;;;26.80;45.40;;;;;;5035393;28;20438;-62
2023/05/28 09:38:40;;;;;;;11.07;6.80;;;27.00;45.50;;;;;;5035529;28;20170;-62
2023/05/28 09:41:20;;;;;;;12.40;7.95;;;27.20;45.50;;;;;;5035684;28;20049;-62
2023/05/28 09:43:55;;;;;;;12.48;7.40;;;27.30;45.40;;;;;;5036037;28;20044;-62
2023/05/28 09:46:21;;;;;;;11.57;7.47;;;27.40;45.20;;;;;;5035669;28;20097;-62
2023/05/28 09:48:48;;;;;;;9.98;7.18;;;27.30;44.10;;;;;;5035282;28;20026;-62
2023/05/28 09:51:15;;;;;;;9.48;6.25;;;27.10;44.20;;;;;;5035348;28;20087;-62
2023/05/28 09:53:45;;;;;;;10.55;6.00;;;27.10;44.30;;;;;;5017813;28;20139;-62
2023/05/28 09:56:13;;;;;;;9.82;5.68;;;27.10;43.90;;;;;;5035422;28;20143;-62
2023/05/28 09:58:42;;;;;;;9.20;5.45;;;27.10;44.10;;;;;;5035146;28;20390;-62
2023/05/28 10:01:13;;;;;;;13.65;7.40;;;27.20;44.00;;;;;;5035115;28;20070;-60
2023/05/28 10:03:47;;;;;;;9.15;5.90;;;27.40;42.20;;;;;;5034476;28;20033;-61
2023/05/28 10:06:23;;;;;;;7.97;5.72;;;27.30;42.70;;;;;;5035271;28;20064;-62
2023/05/28 10:08:53;;;;;;;11.10;6.15;;;27.40;42.90;;;;;;5035011;28;20045;-61
2023/05/28 10:11:28;;;;;;;9.80;6.28;;;27.40;43.50;;;;;;5035096;28;20026;-62
2023/05/28 10:13:54;;;;;;;10.30;5.50;;;27.50;43.20;;;;;;5035016;28;20040;-62
2023/05/28 10:16:21;;;;;;;11.50;7.10;;;27.70;43.30;;;;;;5034925;28;20014;-61
2023/05/28 10:18:47;;;;;;;11.85;5.90;;;27.90;42.80;;;;;;5034454;28;20033;-61
2023/05/28 10:21:13;;;;;;;10.50;6.68;;;27.90;42.20;;;;;;5017895;28;20080;-62
2023/05/28 10:23:41;;;;;;;10.02;6.85;;;27.90;42.00;;;;;;5033774;28;20048;-61
2023/05/28 10:26:08;;;;;;;9.80;6.32;;;27.80;41.70;;;;;;5035204;28;20052;-61
2023/05/28 10:28:34;;;;;;;9.88;5.57;;;27.60;41.30;;;;;;5034670;28;20081;-61
2023/05/28 10:31:08;;;;;;;11.25;6.75;;;27.60;42.20;;;;;;5033802;28;20517;-61
2023/05/28 10:33:41;;;;;;;9.80;5.90;;;27.70;42.50;;;;;;5035375;28;20477;-61
2023/05/28 10:36:12;;;;;;;9.95;5.80;;;27.90;42.20;;;;;;5035043;28;20029;-62
2023/05/28 10:38:52;;;;;;;8.68;5.30;;;28.00;41.60;;;;;;5034945;28;20116;-62
2023/05/28 10:41:22;;;;;;;9.38;6.20;;;28.00;41.30;;;;;;5035013;28;20039;-63
2023/05/28 10:43:49;;;;;;;10.55;5.63;;;28.10;41.10;;;;;;5034663;28;20101;-62
2023/05/28 10:46:35;;;;;;;8.63;5.03;;;28.10;41.10;;;;;;5034642;28;20029;-62
2023/05/28 10:49:14;;;;;;;8.80;5.18;;;28.00;40.30;;;;;;5037760;28;20055;-62
2023/05/28 10:52:02;;;;;;;7.97;5.18;;;28.00;41.10;;;;;;5038570;28;20026;-62
2023/05/28 10:54:37;;;;;;;8.63;4.82;;;28.10;40.50;;;;;;5038922;28;20022;-63
2023/05/28 10:57:16;;;;;;;8.57;5.45;;;28.20;40.90;;;;;;5039002;28;20091;-61
2023/05/28 11:00:07;;;;;;;9.65;5.93;;;28.30;40.90;;;;;;5039205;28;20026;-64
2023/05/28 11:02:40;;;;;;;8.15;5.25;;;28.40;39.40;;;;;;5038815;28;20044;-62
2023/05/28 11:05:06;;;;;;;8.35;5.10;;;28.40;40.00;;;;;;5038398;28;20044;-62
2023/05/28 11:07:42;;;;;;;8.15;5.35;;;28.40;40.20;;;;;;5037270;28;20106;-64
2023/05/28 11:10:14;;;;;;;8.05;4.72;;;28.40;40.20;;;;;;5038132;28;20071;-63
2023/05/28 11:12:41;;;;;;;10.25;7.03;;;28.60;40.20;;;;;;5037216;28;20391;-63
2023/05/28 11:15:09;;;;;;;8.93;5.75;;;28.70;39.90;;;;;;5038154;28;20083;-62
2023/05/28 11:17:38;;;;;;;9.80;6.30;;;28.80;40.00;;;;;;5038021;28;20022;-62
2023/05/28 11:20:06;;;;;;;8.68;5.57;;;28.70;39.70;;;;;;5038112;28;20033;-63
2023/05/28 11:22:38;;;;;;;9.05;5.25;;;28.70;40.00;;;;;;5038531;28;20034;-62
2023/05/28 11:25:06;;;;;;;12.77;6.97;;;28.80;40.10;;;;;;5037882;28;20064;-62
2023/05/28 11:27:35;;;;;;;8.50;5.65;;;28.80;39.90;;;;;;5037702;28;20081;-62
2023/05/28 11:30:03;;;;;;;29.45;7.80;;;28.70;40.00;;;;;;5037575;28;20458;-62
2023/05/28 11:32:32;;;;;;;10.25;6.28;;;28.60;40.10;;;;;;5037849;28;20382;-62
2023/05/28 11:34:58;;;;;;;8.48;5.10;;;28.50;39.90;;;;;;5020414;28;20487;-62
2023/05/28 11:37:32;;;;;;;9.25;5.40;;;28.50;40.20;;;;;;5036829;28;20095;-61
2023/05/28 11:39:59;;;;;;;8.52;5.03;;;28.60;40.30;;;;;;5037163;28;20072;-62
2023/05/28 11:42:29;;;;;;;11.18;6.38;;;28.60;40.40;;;;;;5036783;28;20022;-61
2023/05/28 11:44:58;;;;;;;6.97;4.70;;;28.70;40.30;;;;;;5036720;28;20108;-62
2023/05/28 11:47:26;;;;;;;8.32;5.13;;;28.70;40.30;;;;;;5037440;28;20032;-63
2023/05/28 11:49:53;;;;;;;9.40;5.57;;;28.70;40.60;;;;;;5037777;28;20040;-63
2023/05/28 11:52:24;;;;;;;8.00;5.07;;;28.70;40.60;;;;;;5037569;28;20079;-63
2023/05/28 11:54:58;;;;;;;8.82;5.40;;;28.70;40.40;;;;;;5036494;28;20307;-63
2023/05/28 11:57:26;;;;;;;10.60;6.18;;;28.80;40.60;;;;;;5036447;28;20053;-62
2023/05/28 12:00:21;;;;;;;8.63;5.00;;;28.80;40.80;;;;;;5035038;28;20496;-62
2023/05/28 12:02:49;;;;;;;7.05;4.90;;;28.90;41.00;;;;;;5037303;28;20617;-62
2023/05/28 12:05:17;;;;;;;8.90;5.95;;;28.90;40.80;;;;;;5036317;28;20462;-63
2023/05/28 12:07:51;;;;;;;8.05;5.40;;;29.00;40.60;;;;;;5051457;28;20063;-62
2023/05/28 12:10:22;;;;;;;8.40;5.05;;;29.00;40.00;;;;;;5073137;28;20091;-63
2023/05/28 12:12:51;;;;;;;7.82;5.18;;;29.00;40.10;;;;;;5056886;28;20017;-62
2023/05/28 12:15:18;;;;;;;9.68;5.75;;;29.10;40.00;;;;;;5056007;28;20025;-63
2023/05/28 12:17:46;;;;;;;8.60;5.38;;;29.00;39.90;;;;;;5055948;28;20398;-62
2023/05/28 12:20:12;;;;;;;11.07;5.68;;;29.00;39.80;;;;;;5057244;28;20400;-62
2023/05/28 12:22:42;;;;;;;7.78;5.05;;;28.90;39.80;;;;;;5057360;28;20485;-62
2023/05/28 12:25:08;;;;;;;7.05;5.22;;;28.90;40.10;;;;;;5056819;28;20025;-63
2023/05/28 12:27:36;;;;;;;8.52;5.65;;;28.80;40.00;;;;;;5056670;28;20072;-63
2023/05/28 12:30:06;;;;;;;8.40;5.43;;;28.70;40.10;;;;;;5056699;28;20041;-63
2023/05/28 12:32:34;;;;;;;10.45;6.13;;;28.50;39.70;;;;;;5056713;28;20370;-63
2023/05/28 12:35:00;;;;;;;10.35;6.18;;;28.40;40.10;;;;;;5057006;28;20025;-63
2023/05/28 12:37:27;;;;;;;8.32;5.40;;;28.40;40.00;;;;;;5056538;28;20021;-64
2023/05/28 12:39:53;;;;;;;7.57;5.43;;;28.50;40.20;;;;;;5057051;28;20338;-62
2023/05/28 12:42:20;;;;;;;8.80;5.72;;;28.60;39.90;;;;;;5056424;28;20017;-63